createdAt,value
2023-04-20T00:01:14.526Z,100.00
2023-04-20T00:03:41.847Z,100.00
2023-04-20T00:06:09.312Z,100.00
2023-04-20T00:08:36.244Z,100.00
2023-04-20T00:11:03.419Z,100.00
2023-04-20T00:13:30.412Z,100.00
2023-04-20T00:15:57.580Z,100.00
2023-04-20T00:18:24.465Z,100.00
2023-04-20T00:20:51.633Z,100.00
2023-04-20T00:23:18.474Z,100.00
2023-04-20T00:25:45.709Z,100.00
2023-04-20T00:28:12.578Z,100.00
2023-04-20T00:30:39.720Z,100.00
2023-04-20T00:33:06.620Z,100.00
2023-04-20T00:35:33.964Z,100.00
2023-04-20T00:38:00.825Z,100.00
2023-04-20T00:40:27.911Z,100.00
2023-04-20T00:42:54.905Z,100.00
2023-04-20T00:45:22.353Z,100.00
2023-04-20T00:47:49.327Z,100.00
2023-04-20T00:50:17.819Z,100.00
2023-04-20T00:52:45.715Z,100.00
2023-04-20T00:55:12.919Z,100.00
2023-04-20T00:57:41.733Z,100.00
2023-04-20T01:00:10.681Z,100.00
2023-04-20T01:02:37.834Z,100.00
2023-04-20T01:05:05.648Z,100.00
2023-04-20T01:07:32.652Z,100.00
2023-04-20T01:09:59.974Z,100.00
2023-04-20T01:12:26.890Z,100.00
2023-04-20T01:14:54.020Z,100.00
2023-04-20T01:17:21.351Z,100.00
2023-04-20T01:19:49.259Z,100.00
2023-04-20T01:22:21.236Z,100.00
2023-04-20T01:24:48.988Z,100.00
2023-04-20T01:27:17.193Z,100.00
2023-04-20T01:29:45.288Z,100.00
2023-04-20T01:32:12.445Z,100.00
2023-04-20T01:34:39.637Z,100.00
2023-04-20T01:37:08.361Z,100.00
2023-04-20T01:39:37.601Z,100.00
2023-04-20T01:42:05.832Z,100.00
2023-04-20T01:44:32.961Z,100.00
2023-04-20T01:47:00.009Z,100.00
2023-04-20T01:49:27.352Z,100.00
2023-04-20T01:51:54.262Z,100.00
2023-04-20T01:54:21.603Z,100.00
2023-04-20T01:56:48.466Z,100.00
2023-04-20T01:59:15.818Z,100.00
2023-04-20T02:01:42.996Z,100.00
2023-04-20T02:04:10.335Z,100.00
2023-04-20T02:06:37.292Z,100.00
2023-04-20T02:09:04.660Z,100.00
2023-04-20T02:11:31.504Z,100.00
2023-04-20T02:13:58.668Z,100.00
2023-04-20T02:16:25.677Z,100.00
2023-04-20T02:18:52.872Z,100.00
2023-04-20T02:21:19.683Z,100.00
2023-04-20T02:23:46.863Z,100.00
2023-04-20T02:26:13.805Z,100.00
2023-04-20T02:28:41.060Z,100.00
2023-04-20T02:31:07.927Z,100.00
2023-04-20T02:33:35.275Z,100.00
2023-04-20T02:36:02.176Z,100.00
2023-04-20T02:38:29.324Z,100.00
2023-04-20T02:40:56.249Z,100.00
2023-04-20T02:43:23.499Z,100.00
2023-04-20T02:45:50.534Z,100.00
2023-04-20T02:48:17.861Z,100.00
2023-04-20T02:50:44.803Z,100.00
2023-04-20T02:53:11.950Z,100.00
2023-04-20T02:55:38.820Z,100.00
2023-04-20T02:58:06.101Z,100.00
2023-04-20T03:00:32.944Z,100.00
2023-04-20T03:03:00.295Z,100.00
2023-04-20T03:05:27.284Z,100.00
2023-04-20T03:07:54.449Z,100.00
2023-04-20T03:10:21.343Z,100.00
2023-04-20T03:12:48.625Z,100.00
2023-04-20T03:15:17.129Z,100.00
2023-04-20T03:17:44.357Z,100.00
2023-04-20T03:20:12.008Z,100.00
2023-04-20T03:22:39.101Z,100.00
2023-04-20T03:25:06.570Z,100.00
2023-04-20T03:27:33.736Z,100.00
2023-04-20T03:30:00.841Z,100.00
2023-04-20T03:32:28.022Z,100.00
2023-04-20T03:34:54.864Z,100.00
2023-04-20T03:37:22.068Z,100.00
2023-04-20T03:39:48.935Z,100.00
2023-04-20T03:42:16.330Z,100.00
2023-04-20T03:44:43.187Z,100.00
2023-04-20T03:47:10.987Z,100.00
2023-04-20T03:49:37.926Z,100.00
2023-04-20T03:52:05.715Z,100.00
2023-04-20T03:54:32.576Z,100.00
2023-04-20T03:56:59.762Z,100.00
2023-04-20T03:59:26.670Z,100.00
2023-04-20T04:01:54.286Z,100.00
2023-04-20T04:04:21.426Z,100.00
2023-04-20T04:06:48.962Z,100.00
2023-04-20T04:09:15.940Z,100.00
2023-04-20T04:11:43.459Z,100.00
2023-04-20T04:14:10.663Z,100.00
2023-04-20T04:16:38.009Z,100.00
2023-04-20T04:19:04.831Z,100.00
2023-04-20T04:21:31.960Z,100.00
2023-04-20T04:23:59.092Z,100.00
2023-04-20T04:26:26.798Z,100.00
2023-04-20T04:28:53.670Z,100.00
2023-04-20T04:31:21.759Z,100.00
2023-04-20T04:33:49.741Z,100.00
2023-04-20T04:36:17.735Z,100.00
2023-04-20T04:38:44.874Z,100.00
2023-04-20T04:41:12.845Z,100.00
2023-04-20T04:43:41.139Z,100.00
2023-04-20T04:46:13.274Z,100.00
2023-04-20T04:48:43.489Z,100.00
2023-04-20T04:51:10.804Z,100.00
2023-04-20T04:53:38.099Z,100.00
2023-04-20T04:56:06.994Z,100.00
2023-04-20T04:58:33.927Z,100.00
2023-04-20T05:01:01.146Z,100.00
2023-04-20T05:03:28.111Z,100.00
2023-04-20T05:05:55.463Z,100.00
2023-04-20T05:08:24.476Z,100.00
2023-04-20T05:10:51.672Z,100.00
2023-04-20T05:13:18.564Z,100.00
2023-04-20T05:15:45.694Z,100.00
2023-04-20T05:18:12.500Z,100.00
2023-04-20T05:20:39.664Z,100.00
2023-04-20T05:23:06.476Z,100.00
2023-04-20T05:25:33.821Z,100.00
2023-04-20T05:28:00.867Z,100.00
2023-04-20T05:30:28.036Z,100.00
2023-04-20T05:32:55.019Z,100.00
2023-04-20T05:35:22.525Z,100.00
2023-04-20T05:37:49.430Z,100.00
2023-04-20T05:40:16.630Z,100.00
2023-04-20T05:42:43.595Z,100.00
2023-04-20T05:45:11.484Z,100.00
2023-04-20T05:47:38.458Z,100.00
2023-04-20T05:50:06.566Z,100.00
2023-04-20T05:52:33.529Z,100.00
2023-04-20T05:55:00.666Z,100.00
2023-04-20T05:57:27.613Z,100.00
2023-04-20T05:59:56.171Z,100.00
2023-04-20T06:02:23.384Z,100.00
2023-04-20T06:04:50.842Z,100.00
2023-04-20T06:07:30.073Z,100.00
2023-04-20T06:09:57.575Z,100.00
2023-04-20T06:12:26.262Z,100.00
2023-04-20T06:14:53.916Z,100.00
2023-04-20T06:17:20.751Z,100.00
2023-04-20T06:19:48.002Z,100.00
2023-04-20T06:22:15.919Z,100.00
2023-04-20T06:24:43.246Z,100.00
2023-04-20T06:27:10.750Z,100.00
2023-04-20T06:29:38.259Z,100.00
2023-04-20T06:32:05.385Z,100.00
2023-04-20T06:34:32.720Z,100.00
2023-04-20T06:36:59.589Z,100.00
2023-04-20T06:39:26.757Z,100.00
2023-04-20T06:41:53.597Z,100.00
2023-04-20T06:44:20.847Z,100.00
2023-04-20T06:46:47.811Z,100.00
2023-04-20T06:49:15.122Z,100.00
2023-04-20T06:51:43.208Z,100.00
2023-04-20T06:54:10.454Z,100.00
2023-04-20T06:56:37.319Z,100.00
2023-04-20T06:59:04.523Z,100.00
2023-04-20T07:01:31.430Z,100.00
2023-04-20T07:03:58.903Z,100.00
2023-04-20T07:06:27.589Z,100.00
2023-04-20T07:08:54.677Z,100.00
2023-04-20T07:11:21.564Z,100.00
2023-04-20T07:13:48.781Z,100.00
2023-04-20T07:16:16.673Z,93.58
2023-04-20T07:18:43.995Z,83.10
2023-04-20T07:21:10.898Z,74.21
2023-04-20T07:23:38.078Z,72.53
2023-04-20T07:26:05.098Z,68.27
2023-04-20T07:28:32.948Z,58.76
2023-04-20T07:31:00.008Z,53.81
2023-04-20T07:33:27.934Z,49.63
2023-04-20T07:35:54.768Z,45.37
2023-04-20T07:38:21.911Z,45.88
2023-04-20T07:40:48.807Z,46.65
2023-04-20T07:43:15.956Z,48.78
2023-04-20T07:45:42.987Z,50.18
2023-04-20T07:48:12.539Z,45.64
2023-04-20T07:50:39.944Z,42.63
2023-04-20T07:53:07.298Z,40.79
2023-04-20T07:55:34.251Z,39.92
2023-04-20T07:58:01.459Z,38.83
2023-04-20T08:00:28.497Z,38.64
2023-04-20T08:02:55.919Z,36.87
2023-04-20T08:05:24.568Z,37.63
2023-04-20T08:07:52.158Z,37.28
2023-04-20T08:10:19.123Z,35.62
2023-04-20T08:12:47.167Z,34.58
2023-04-20T08:15:14.627Z,33.10
2023-04-20T08:17:41.915Z,33.53
2023-04-20T08:20:09.286Z,32.01
2023-04-20T08:22:36.560Z,32.08
2023-04-20T08:25:03.708Z,32.63
2023-04-20T08:27:30.757Z,31.78
2023-04-20T08:29:58.120Z,31.80
2023-04-20T08:32:27.066Z,31.12
2023-04-20T08:34:55.350Z,30.16
2023-04-20T08:37:22.432Z,32.15
2023-04-20T08:39:49.642Z,32.54
2023-04-20T08:42:17.118Z,34.15
2023-04-20T08:44:44.313Z,35.56
2023-04-20T08:47:12.136Z,36.21
2023-04-20T08:49:40.404Z,36.12
2023-04-20T08:52:10.839Z,35.91
2023-04-20T08:54:45.942Z,33.71
2023-04-20T08:57:16.545Z,35.29
2023-04-20T08:59:43.721Z,38.46
2023-04-20T09:02:12.083Z,37.47
2023-04-20T09:04:40.943Z,37.46
2023-04-20T09:07:17.905Z,35.46
2023-04-20T09:09:58.043Z,35.91
2023-04-20T09:12:25.518Z,39.30
2023-04-20T09:14:53.583Z,39.50
2023-04-20T09:17:37.251Z,37.40
2023-04-20T09:20:08.624Z,37.67
2023-04-20T09:22:37.644Z,35.77
2023-04-20T09:25:15.477Z,36.02
2023-04-20T09:27:42.337Z,32.98
2023-04-20T09:30:09.969Z,32.01
2023-04-20T09:32:36.852Z,32.04
2023-04-20T09:35:04.229Z,34.66
2023-04-20T09:37:31.157Z,33.34
2023-04-20T09:40:00.924Z,33.73
2023-04-20T09:42:28.936Z,34.25
2023-04-20T09:44:57.588Z,33.54
2023-04-20T09:47:26.891Z,32.56
2023-04-20T09:49:54.902Z,30.65
2023-04-20T09:52:24.257Z,30.95
2023-04-20T09:54:51.796Z,30.47
2023-04-20T09:57:19.490Z,30.94
2023-04-20T09:59:47.405Z,30.68
2023-04-20T10:02:15.126Z,32.62
2023-04-20T10:04:55.867Z,33.67
2023-04-20T10:07:27.323Z,35.06
2023-04-20T10:10:15.827Z,34.44
2023-04-20T10:12:51.626Z,34.75
2023-04-20T10:15:19.428Z,34.88
2023-04-20T10:17:46.461Z,34.77
2023-04-20T10:20:27.123Z,30.77
2023-04-20T10:22:55.641Z,30.83
2023-04-20T10:25:26.897Z,31.17
2023-04-20T10:27:53.878Z,31.11
2023-04-20T10:30:21.933Z,29.82
2023-04-20T10:32:48.911Z,29.86
2023-04-20T10:35:16.357Z,28.74
2023-04-20T10:37:51.073Z,28.94
2023-04-20T10:40:27.220Z,29.66
2023-04-20T10:42:54.130Z,30.70
2023-04-20T10:45:22.051Z,31.48
2023-04-20T10:47:49.078Z,32.53
2023-04-20T10:50:16.662Z,30.50
2023-04-20T10:52:44.818Z,28.90
2023-04-20T10:55:28.283Z,29.29
2023-04-20T10:57:55.167Z,27.34
2023-04-20T11:00:25.498Z,26.90
2023-04-20T11:02:58.270Z,25.79
2023-04-20T11:05:27.923Z,24.67
2023-04-20T11:07:59.033Z,25.58
2023-04-20T11:10:39.038Z,24.45
2023-04-20T11:13:06.086Z,24.72
2023-04-20T11:15:34.157Z,23.68
2023-04-20T11:18:12.171Z,25.64
2023-04-20T11:20:54.070Z,28.26
2023-04-20T11:23:22.673Z,28.81
2023-04-20T11:25:53.960Z,29.57
2023-04-20T11:28:21.033Z,30.71
2023-04-20T11:30:49.727Z,31.68
2023-04-20T11:33:28.225Z,33.04
2023-04-20T11:35:56.791Z,33.73
2023-04-20T11:38:34.271Z,33.41
2023-04-20T11:41:08.013Z,33.74
2023-04-20T11:43:36.055Z,33.70
2023-04-20T11:46:03.652Z,33.99
2023-04-20T11:48:31.707Z,34.56
2023-04-20T11:50:58.951Z,35.92
2023-04-20T11:53:25.888Z,34.45
2023-04-20T11:55:53.010Z,36.09
2023-04-20T11:58:19.847Z,36.20
2023-04-20T12:00:47.019Z,37.20
2023-04-20T12:03:14.034Z,37.65
2023-04-20T12:05:43.345Z,38.18
2023-04-20T12:08:10.360Z,37.97
2023-04-20T12:10:37.588Z,36.23
2023-04-20T12:13:04.519Z,37.18
2023-04-20T12:15:31.886Z,36.96
2023-04-20T12:17:58.906Z,37.14
2023-04-20T12:20:26.307Z,37.23
2023-04-20T12:22:53.250Z,36.98
2023-04-20T12:25:20.719Z,36.90
2023-04-20T12:27:49.436Z,36.98
2023-04-20T12:30:17.228Z,37.92
2023-04-20T12:32:44.092Z,38.83
2023-04-20T12:35:11.294Z,38.31
2023-04-20T12:37:38.106Z,37.99
2023-04-20T12:40:06.627Z,37.77
2023-04-20T12:42:33.627Z,38.65
2023-04-20T12:45:00.765Z,38.71
2023-04-20T12:47:27.655Z,38.11
2023-04-20T12:49:55.187Z,37.82
2023-04-20T12:52:22.100Z,38.50
2023-04-20T12:54:50.004Z,37.48
2023-04-20T12:57:17.174Z,37.89
2023-04-20T12:59:44.305Z,38.29
2023-04-20T13:02:12.149Z,38.25
2023-04-20T13:04:39.520Z,38.28
2023-04-20T13:07:07.173Z,38.55
2023-04-20T13:09:34.439Z,37.83
2023-04-20T13:12:01.397Z,35.04
2023-04-20T13:14:29.722Z,35.71
2023-04-20T13:16:56.727Z,36.88
2023-04-20T13:19:23.953Z,37.14
2023-04-20T13:21:50.901Z,36.00
2023-04-20T13:24:18.336Z,36.77
2023-04-20T13:26:45.690Z,36.33
2023-04-20T13:29:13.077Z,35.00
2023-04-20T13:31:40.752Z,36.89
2023-04-20T13:34:08.003Z,37.63
2023-04-20T13:36:34.908Z,36.94
2023-04-20T13:39:02.137Z,36.62
2023-04-20T13:41:29.039Z,36.69
2023-04-20T13:43:57.949Z,35.25
2023-04-20T13:46:25.021Z,35.27
2023-04-20T13:48:52.269Z,35.18
2023-04-20T13:51:19.677Z,36.89
2023-04-20T13:53:50.140Z,35.88
2023-04-20T13:56:17.188Z,34.23
2023-04-20T13:58:44.740Z,35.40
2023-04-20T14:01:13.452Z,32.55
2023-04-20T14:03:42.017Z,31.96
2023-04-20T14:06:09.086Z,32.16
2023-04-20T14:08:36.376Z,32.51
2023-04-20T14:11:03.230Z,32.63
2023-04-20T14:13:30.507Z,33.43
2023-04-20T14:15:57.747Z,33.80
2023-04-20T14:18:24.922Z,33.98
2023-04-20T14:20:52.490Z,33.51
2023-04-20T14:23:19.791Z,33.25
2023-04-20T14:25:46.649Z,31.28
2023-04-20T14:28:16.786Z,31.95
2023-04-20T14:30:45.372Z,33.27
2023-04-20T14:33:13.015Z,34.01
2023-04-20T14:35:40.493Z,32.39
2023-04-20T14:38:07.676Z,31.38
2023-04-20T14:40:34.864Z,32.36
2023-04-20T14:43:02.024Z,32.74
2023-04-20T14:45:28.973Z,33.30
2023-04-20T14:47:57.145Z,32.33
2023-04-20T14:50:28.911Z,32.57
2023-04-20T14:52:56.324Z,33.81
2023-04-20T14:55:25.806Z,34.89
2023-04-20T14:57:56.502Z,34.42
2023-04-20T15:00:24.812Z,35.01
2023-04-20T15:02:53.617Z,34.81
2023-04-20T15:05:20.688Z,35.95
2023-04-20T15:07:50.777Z,35.19
2023-04-20T15:10:19.497Z,35.33
2023-04-20T15:12:48.049Z,34.61
2023-04-20T15:15:17.106Z,35.22
2023-04-20T15:17:45.991Z,35.17
2023-04-20T15:20:15.228Z,34.49
2023-04-20T15:22:42.562Z,35.25
2023-04-20T15:25:09.804Z,34.45
2023-04-20T15:27:37.017Z,34.47
2023-04-20T15:30:05.174Z,35.16
2023-04-20T15:32:35.585Z,34.57
2023-04-20T15:35:02.725Z,34.68
2023-04-20T15:37:30.083Z,33.19
2023-04-20T15:39:57.091Z,33.59
2023-04-20T15:42:24.240Z,33.38
2023-04-20T15:44:51.138Z,34.26
2023-04-20T15:47:18.306Z,33.90
2023-04-20T15:49:45.371Z,34.14
2023-04-20T15:52:12.501Z,34.50
2023-04-20T15:54:39.848Z,34.16
2023-04-20T15:57:07.085Z,34.43
2023-04-20T15:59:33.948Z,34.98
2023-04-20T16:02:01.199Z,35.44
2023-04-20T16:04:28.118Z,35.81
2023-04-20T16:06:55.430Z,35.93
2023-04-20T16:09:23.796Z,36.19
2023-04-20T16:11:51.204Z,36.64
2023-04-20T16:14:18.455Z,36.64
2023-04-20T16:16:46.029Z,36.88
2023-04-20T16:19:15.960Z,36.90
2023-04-20T16:21:43.186Z,36.43
2023-04-20T16:24:10.078Z,36.79
2023-04-20T16:26:38.960Z,36.78
2023-04-20T16:29:06.483Z,37.00
2023-04-20T16:31:37.486Z,37.12
2023-04-20T16:34:04.469Z,36.93
2023-04-20T16:36:32.164Z,37.65
2023-04-20T16:38:59.038Z,37.94
2023-04-20T16:41:27.235Z,37.74
2023-04-20T16:43:54.196Z,38.73
2023-04-20T16:46:22.392Z,38.74
2023-04-20T16:48:50.815Z,38.90
2023-04-20T16:51:18.025Z,38.99
2023-04-20T16:53:45.455Z,39.96
2023-04-20T16:56:12.827Z,40.06
2023-04-20T16:58:39.641Z,39.99
2023-04-20T17:01:07.995Z,39.91
2023-04-20T17:03:35.196Z,40.12
2023-04-20T17:06:07.515Z,40.07
2023-04-20T17:08:34.762Z,40.33
2023-04-20T17:11:02.088Z,40.64
2023-04-20T17:13:28.939Z,41.23
2023-04-20T17:15:56.407Z,41.46
2023-04-20T17:18:23.367Z,41.53
2023-04-20T17:20:50.722Z,42.26
2023-04-20T17:23:18.207Z,42.73
2023-04-20T17:25:47.388Z,43.16
2023-04-20T17:28:14.757Z,43.75
2023-04-20T17:30:41.991Z,44.26
2023-04-20T17:33:12.193Z,44.38
2023-04-20T17:35:39.579Z,44.95
2023-04-20T17:38:06.639Z,45.65
2023-04-20T17:40:34.047Z,46.27
2023-04-20T17:43:02.241Z,47.07
2023-04-20T17:45:29.410Z,47.44
2023-04-20T17:47:56.528Z,48.15
2023-04-20T17:50:24.444Z,48.89
2023-04-20T17:52:51.926Z,49.13
2023-04-20T17:55:19.072Z,49.42
2023-04-20T17:57:45.945Z,49.98
2023-04-20T18:00:13.732Z,50.76
2023-04-20T18:02:41.171Z,51.24
2023-04-20T18:05:08.812Z,51.77
2023-04-20T18:07:35.908Z,52.46
2023-04-20T18:10:04.267Z,52.90
2023-04-20T18:12:31.163Z,53.57
2023-04-20T18:14:58.267Z,53.81
2023-04-20T18:17:25.332Z,54.57
2023-04-20T18:19:52.507Z,55.10
2023-04-20T18:22:19.500Z,55.95
2023-04-20T18:24:46.692Z,56.94
2023-04-20T18:27:13.610Z,56.94
2023-04-20T18:29:40.744Z,58.21
2023-04-20T18:32:08.147Z,64.41
2023-04-20T18:34:35.511Z,64.92
2023-04-20T18:37:02.412Z,64.45
2023-04-20T18:39:30.027Z,62.97
2023-04-20T18:41:56.912Z,64.08
2023-04-20T18:44:24.217Z,64.44
2023-04-20T18:46:51.182Z,64.01
2023-04-20T18:49:18.319Z,66.22
2023-04-20T18:51:45.143Z,66.45
2023-04-20T18:54:12.267Z,65.54
2023-04-20T18:56:39.680Z,64.16
2023-04-20T18:59:08.609Z,66.79
2023-04-20T19:01:40.532Z,68.96
2023-04-20T19:04:08.611Z,68.75
2023-04-20T19:06:36.000Z,68.19
2023-04-20T19:09:03.346Z,70.10
2023-04-20T19:11:31.681Z,72.32
2023-04-20T19:13:58.864Z,72.07
2023-04-20T19:16:25.764Z,72.35
2023-04-20T19:18:53.695Z,73.29
2023-04-20T19:21:22.114Z,73.81
2023-04-20T19:23:49.422Z,75.97
2023-04-20T19:26:17.905Z,76.19
2023-04-20T19:28:45.996Z,75.62
2023-04-20T19:31:13.431Z,74.14
2023-04-20T19:33:41.089Z,73.30
2023-04-20T19:36:08.382Z,71.68
2023-04-20T19:38:37.576Z,70.63
2023-04-20T19:41:06.168Z,70.96
2023-04-20T19:43:33.623Z,70.43
2023-04-20T19:46:01.390Z,69.33
2023-04-20T19:48:28.704Z,67.66
2023-04-20T19:50:59.277Z,65.86
2023-04-20T19:53:27.143Z,63.58
2023-04-20T19:55:53.974Z,61.75
2023-04-20T19:58:21.234Z,60.38
2023-04-20T20:00:48.063Z,60.16
2023-04-20T20:03:16.278Z,59.76
2023-04-20T20:05:44.581Z,60.31
2023-04-20T20:08:11.822Z,59.83
2023-04-20T20:10:38.809Z,60.34
2023-04-20T20:13:06.153Z,59.12
2023-04-20T20:15:33.226Z,59.43
2023-04-20T20:18:00.715Z,59.38
2023-04-20T20:20:30.478Z,59.20
2023-04-20T20:22:58.129Z,58.54
2023-04-20T20:25:25.642Z,58.20
2023-04-20T20:27:53.173Z,58.63
2023-04-20T20:30:20.033Z,58.18
2023-04-20T20:32:47.253Z,58.30
2023-04-20T20:35:14.186Z,58.00
2023-04-20T20:37:41.674Z,58.41
2023-04-20T20:40:14.866Z,58.24
2023-04-20T20:42:43.065Z,57.92
2023-04-20T20:45:12.539Z,58.27
2023-04-20T20:47:41.231Z,58.68
2023-04-20T20:50:09.259Z,58.44
2023-04-20T20:52:36.571Z,58.33
2023-04-20T20:55:04.364Z,57.71
2023-04-20T20:57:31.612Z,58.01
2023-04-20T20:59:58.500Z,57.68
2023-04-20T21:02:25.826Z,57.19
2023-04-20T21:04:53.628Z,57.88
2023-04-20T21:07:20.810Z,58.42
2023-04-20T21:09:47.677Z,58.76
2023-04-20T21:12:14.874Z,59.27
2023-04-20T21:14:41.707Z,59.42
2023-04-20T21:17:09.055Z,58.93
2023-04-20T21:19:35.952Z,59.38
2023-04-20T21:22:03.250Z,58.97
2023-04-20T21:24:30.077Z,58.82
2023-04-20T21:26:58.161Z,59.61
2023-04-20T21:29:25.051Z,59.77
2023-04-20T21:31:52.271Z,59.93
2023-04-20T21:34:19.223Z,59.80
2023-04-20T21:36:46.451Z,59.91
2023-04-20T21:39:13.326Z,59.64
2023-04-20T21:41:40.592Z,60.08
2023-04-20T21:44:07.539Z,60.17
2023-04-20T21:46:36.073Z,60.51
2023-04-20T21:49:03.078Z,60.57
2023-04-20T21:51:30.192Z,60.95
2023-04-20T21:53:57.005Z,61.59
2023-04-20T21:56:24.165Z,61.71
2023-04-20T21:58:51.055Z,62.21
2023-04-20T22:01:18.301Z,62.13
2023-04-20T22:03:45.401Z,61.75
2023-04-20T22:06:12.712Z,61.82
2023-04-20T22:08:39.916Z,62.27
2023-04-20T22:11:07.465Z,62.79
2023-04-20T22:13:34.903Z,63.17
2023-04-20T22:16:02.206Z,66.07
2023-04-20T22:18:29.213Z,65.50
2023-04-20T22:20:56.331Z,66.22
2023-04-20T22:23:23.208Z,67.39
2023-04-20T22:25:50.431Z,67.80
2023-04-20T22:28:17.354Z,68.96
2023-04-20T22:30:44.519Z,69.48
2023-04-20T22:33:11.405Z,72.47
2023-04-20T22:35:38.565Z,74.97
2023-04-20T22:38:05.752Z,75.02
2023-04-20T22:40:32.962Z,74.82
2023-04-20T22:42:59.801Z,76.35
2023-04-20T22:45:26.950Z,76.94
2023-04-20T22:47:53.871Z,78.09
2023-04-20T22:50:21.109Z,77.56
2023-04-20T22:52:49.580Z,77.80
2023-04-20T22:55:16.920Z,78.67
2023-04-20T22:57:43.763Z,79.68
2023-04-20T23:00:13.646Z,81.43
2023-04-20T23:02:41.547Z,83.31
2023-04-20T23:05:09.753Z,84.43
2023-04-20T23:07:37.573Z,85.26
2023-04-20T23:10:06.162Z,85.27
2023-04-20T23:12:33.410Z,84.47
2023-04-20T23:15:01.441Z,83.66
2023-04-20T23:17:28.835Z,83.30
2023-04-20T23:19:56.615Z,86.00
2023-04-20T23:22:23.638Z,86.62
2023-04-20T23:24:50.810Z,87.96
2023-04-20T23:27:17.800Z,88.04
2023-04-20T23:29:45.218Z,87.60
2023-04-20T23:32:12.118Z,86.73
2023-04-20T23:34:39.348Z,86.50
2023-04-20T23:37:06.201Z,86.44
2023-04-20T23:39:37.240Z,86.09
2023-04-20T23:42:06.862Z,87.29
2023-04-20T23:44:34.016Z,88.04
2023-04-20T23:47:00.939Z,91.87
2023-04-20T23:49:28.161Z,93.99
2023-04-20T23:51:55.019Z,96.00
2023-04-20T23:54:22.271Z,97.14
2023-04-20T23:56:49.236Z,98.28
2023-04-20T23:59:16.886Z,100.00
